Terminal Aerodrome Forecast
Issued by NWS Boston, MA

Home | Current Version | Previous Version | Text Only | Print | Product List | Glossary On
Versions: 1 2 3 4 5 6 7 8 9 10 11 12 13 14 15 16 17 18 19 20 21 22 23 24
000
FTUS41 KBOX 250838 AAA
TAFPVD
TAF AMD
KPVD 250838Z 2509/2606 06007KT P6SM SCT015 BKN120
     FM251200 07010G20KT 5SM -RA OVC015
     FM251500 05012G19KT 2SM -RA BR OVC009
     FM251900 05010G18KT 1 1/2SM -DZ BR VCSH OVC008
     FM260100 07008KT 2SM -RA BR OVC003=

USA.gov is the U.S. government's official web portal to all federal, state and local government web resources and services.